sensor_id;sensor_type;location;lat;lon;timestamp;temperature;humidity
15241;DHT22;7723;52.170;9.978;2022-07-24T00:01:14;13.80;99.90
15241;DHT22;7723;52.170;9.978;2022-07-24T00:03:41;13.80;99.90
15241;DHT22;7723;52.170;9.978;2022-07-24T00:06:10;13.70;99.90
15241;DHT22;7723;52.170;9.978;2022-07-24T00:08:37;13.70;99.90
15241;DHT22;7723;52.170;9.978;2022-07-24T00:11:06;13.70;99.90
15241;DHT22;7723;52.170;9.978;2022-07-24T00:13:33;13.60;99.90
15241;DHT22;7723;52.170;9.978;2022-07-24T00:16:00;13.70;99.90
15241;DHT22;7723;52.170;9.978;2022-07-24T00:18:27;13.60;99.90
15241;DHT22;7723;52.170;9.978;2022-07-24T00:20:54;13.60;99.90
15241;DHT22;7723;52.170;9.978;2022-07-24T00:23:23;13.50;99.90
15241;DHT22;7723;52.170;9.978;2022-07-24T00:25:51;13.50;99.90
15241;DHT22;7723;52.170;9.978;2022-07-24T00:28:18;13.40;99.90
15241;DHT22;7723;52.170;9.978;2022-07-24T00:30:45;13.40;99.90
15241;DHT22;7723;52.170;9.978;2022-07-24T00:33:13;13.40;99.90
15241;DHT22;7723;52.170;9.978;2022-07-24T00:35:40;13.40;99.90
15241;DHT22;7723;52.170;9.978;2022-07-24T00:38:07;13.30;99.90
15241;DHT22;7723;52.170;9.978;2022-07-24T00:40:35;13.30;99.90
15241;DHT22;7723;52.170;9.978;2022-07-24T00:43:03;13.20;99.90
15241;DHT22;7723;52.170;9.978;2022-07-24T00:45:31;13.20;99.90
15241;DHT22;7723;52.170;9.978;2022-07-24T00:47:58;13.20;99.90
15241;DHT22;7723;52.170;9.978;2022-07-24T00:50:25;13.20;99.90
15241;DHT22;7723;52.170;9.978;2022-07-24T00:52:52;13.30;99.90
15241;DHT22;7723;52.170;9.978;2022-07-24T00:55:20;13.20;99.90
15241;DHT22;7723;52.170;9.978;2022-07-24T00:57:49;13.20;99.90
15241;DHT22;7723;52.170;9.978;2022-07-24T01:00:18;13.20;99.90
15241;DHT22;7723;52.170;9.978;2022-07-24T01:02:48;13.20;99.90
15241;DHT22;7723;52.170;9.978;2022-07-24T01:05:17;13.10;99.90
15241;DHT22;7723;52.170;9.978;2022-07-24T01:07:45;13.10;99.90
15241;DHT22;7723;52.170;9.978;2022-07-24T01:10:12;13.20;99.90
15241;DHT22;7723;52.170;9.978;2022-07-24T01:12:40;13.10;99.90
15241;DHT22;7723;52.170;9.978;2022-07-24T01:15:11;13.10;99.90
15241;DHT22;7723;52.170;9.978;2022-07-24T01:17:40;13.20;99.90
15241;DHT22;7723;52.170;9.978;2022-07-24T01:20:09;13.10;99.90
15241;DHT22;7723;52.170;9.978;2022-07-24T01:22:38;13.10;99.90
15241;DHT22;7723;52.170;9.978;2022-07-24T01:25:06;13.10;99.90
15241;DHT22;7723;52.170;9.978;2022-07-24T01:27:33;13.10;99.90
15241;DHT22;7723;52.170;9.978;2022-07-24T01:30:00;13.00;99.90
15241;DHT22;7723;52.170;9.978;2022-07-24T01:32:28;13.00;99.90
15241;DHT22;7723;52.170;9.978;2022-07-24T01:34:55;13.00;99.90
15241;DHT22;7723;52.170;9.978;2022-07-24T01:37:22;12.90;99.90
15241;DHT22;7723;52.170;9.978;2022-07-24T01:39:51;12.90;99.90
15241;DHT22;7723;52.170;9.978;2022-07-24T01:42:18;12.80;99.90
15241;DHT22;7723;52.170;9.978;2022-07-24T01:44:46;12.90;99.90
15241;DHT22;7723;52.170;9.978;2022-07-24T01:47:14;12.80;99.90
15241;DHT22;7723;52.170;9.978;2022-07-24T01:49:41;12.80;99.90
15241;DHT22;7723;52.170;9.978;2022-07-24T01:52:09;12.80;99.90
15241;DHT22;7723;52.170;9.978;2022-07-24T01:54:36;12.80;99.90
15241;DHT22;7723;52.170;9.978;2022-07-24T01:57:04;12.80;99.90
15241;DHT22;7723;52.170;9.978;2022-07-24T01:59:31;12.80;99.90
15241;DHT22;7723;52.170;9.978;2022-07-24T02:01:59;12.70;99.90
15241;DHT22;7723;52.170;9.978;2022-07-24T02:04:26;12.70;99.90
15241;DHT22;7723;52.170;9.978;2022-07-24T02:06:53;12.80;99.90
15241;DHT22;7723;52.170;9.978;2022-07-24T02:09:20;12.70;99.90
15241;DHT22;7723;52.170;9.978;2022-07-24T02:11:47;12.60;99.90
15241;DHT22;7723;52.170;9.978;2022-07-24T02:14:16;12.60;99.90
15241;DHT22;7723;52.170;9.978;2022-07-24T02:16:43;12.70;99.90
15241;DHT22;7723;52.170;9.978;2022-07-24T02:19:11;12.60;99.90
15241;DHT22;7723;52.170;9.978;2022-07-24T02:21:38;12.60;99.90
15241;DHT22;7723;52.170;9.978;2022-07-24T02:24:05;12.50;99.90
15241;DHT22;7723;52.170;9.978;2022-07-24T02:26:33;12.50;99.90
15241;DHT22;7723;52.170;9.978;2022-07-24T02:29:00;12.60;99.90
15241;DHT22;7723;52.170;9.978;2022-07-24T02:31:28;12.50;99.90
15241;DHT22;7723;52.170;9.978;2022-07-24T02:33:56;12.50;99.90
15241;DHT22;7723;52.170;9.978;2022-07-24T02:36:23;12.50;99.90
15241;DHT22;7723;52.170;9.978;2022-07-24T02:38:50;12.40;99.90
15241;DHT22;7723;52.170;9.978;2022-07-24T02:41:17;12.40;99.90
15241;DHT22;7723;52.170;9.978;2022-07-24T02:43:44;12.30;99.90
15241;DHT22;7723;52.170;9.978;2022-07-24T02:46:11;12.30;99.90
15241;DHT22;7723;52.170;9.978;2022-07-24T02:48:40;12.30;99.90
15241;DHT22;7723;52.170;9.978;2022-07-24T02:51:07;12.30;99.90
15241;DHT22;7723;52.170;9.978;2022-07-24T02:53:36;12.30;99.90
15241;DHT22;7723;52.170;9.978;2022-07-24T02:56:04;12.30;99.90
15241;DHT22;7723;52.170;9.978;2022-07-24T02:58:31;12.30;99.90
15241;DHT22;7723;52.170;9.978;2022-07-24T03:00:58;12.20;99.90
15241;DHT22;7723;52.170;9.978;2022-07-24T03:03:25;12.20;99.90
15241;DHT22;7723;52.170;9.978;2022-07-24T03:05:53;12.30;99.90
15241;DHT22;7723;52.170;9.978;2022-07-24T03:08:21;12.30;99.90
15241;DHT22;7723;52.170;9.978;2022-07-24T03:10:48;12.30;99.90
15241;DHT22;7723;52.170;9.978;2022-07-24T03:13:15;12.30;99.90
15241;DHT22;7723;52.170;9.978;2022-07-24T03:15:42;12.30;99.90
15241;DHT22;7723;52.170;9.978;2022-07-24T03:18:09;12.30;99.90
15241;DHT22;7723;52.170;9.978;2022-07-24T03:20:41;12.20;99.90
15241;DHT22;7723;52.170;9.978;2022-07-24T03:23:09;12.20;99.90
15241;DHT22;7723;52.170;9.978;2022-07-24T03:25:37;12.20;99.90
15241;DHT22;7723;52.170;9.978;2022-07-24T03:28:04;12.30;99.90
15241;DHT22;7723;52.170;9.978;2022-07-24T03:30:31;12.30;99.90
15241;DHT22;7723;52.170;9.978;2022-07-24T03:32:58;12.30;99.90
15241;DHT22;7723;52.170;9.978;2022-07-24T03:35:25;12.40;99.90
15241;DHT22;7723;52.170;9.978;2022-07-24T03:37:52;12.40;99.90
15241;DHT22;7723;52.170;9.978;2022-07-24T03:40:21;12.40;99.90
15241;DHT22;7723;52.170;9.978;2022-07-24T03:42:48;12.40;99.90
15241;DHT22;7723;52.170;9.978;2022-07-24T03:45:15;12.30;99.90
15241;DHT22;7723;52.170;9.978;2022-07-24T03:47:42;12.40;99.90
15241;DHT22;7723;52.170;9.978;2022-07-24T03:50:10;12.50;99.90
15241;DHT22;7723;52.170;9.978;2022-07-24T03:52:37;12.50;99.90
15241;DHT22;7723;52.170;9.978;2022-07-24T03:55:05;12.40;99.90
15241;DHT22;7723;52.170;9.978;2022-07-24T03:57:34;12.40;99.90
15241;DHT22;7723;52.170;9.978;2022-07-24T04:00:02;12.40;99.90
15241;DHT22;7723;52.170;9.978;2022-07-24T04:02:29;12.40;99.90
15241;DHT22;7723;52.170;9.978;2022-07-24T04:04:56;12.40;99.90
15241;DHT22;7723;52.170;9.978;2022-07-24T04:07:23;12.40;99.90
15241;DHT22;7723;52.170;9.978;2022-07-24T04:09:51;12.50;99.90
15241;DHT22;7723;52.170;9.978;2022-07-24T04:12:18;12.50;99.90
15241;DHT22;7723;52.170;9.978;2022-07-24T04:14:47;12.60;99.90
15241;DHT22;7723;52.170;9.978;2022-07-24T04:17:14;12.70;99.90
15241;DHT22;7723;52.170;9.978;2022-07-24T04:19:41;12.70;99.90
15241;DHT22;7723;52.170;9.978;2022-07-24T04:22:08;12.80;99.90
15241;DHT22;7723;52.170;9.978;2022-07-24T04:24:35;12.80;99.90
15241;DHT22;7723;52.170;9.978;2022-07-24T04:27:02;12.90;99.90
15241;DHT22;7723;52.170;9.978;2022-07-24T04:29:29;13.50;99.90
15241;DHT22;7723;52.170;9.978;2022-07-24T04:31:58;14.40;99.90
15241;DHT22;7723;52.170;9.978;2022-07-24T04:34:25;15.10;99.90
15241;DHT22;7723;52.170;9.978;2022-07-24T04:36:52;15.80;99.90
15241;DHT22;7723;52.170;9.978;2022-07-24T04:39:19;16.30;95.20
15241;DHT22;7723;52.170;9.978;2022-07-24T04:41:46;16.80;70.80
15241;DHT22;7723;52.170;9.978;2022-07-24T04:44:13;17.50;46.20
15241;DHT22;7723;52.170;9.978;2022-07-24T04:46:41;17.90;29.50
15241;DHT22;7723;52.170;9.978;2022-07-24T04:49:10;18.30;19.50
15241;DHT22;7723;52.170;9.978;2022-07-24T04:51:37;18.80;14.60
15241;DHT22;7723;52.170;9.978;2022-07-24T04:54:04;19.20;8.90
15241;DHT22;7723;52.170;9.978;2022-07-24T04:56:31;19.50;7.80
15241;DHT22;7723;52.170;9.978;2022-07-24T04:58:58;20.00;3.80
15241;DHT22;7723;52.170;9.978;2022-07-24T05:01:27;20.60;1.00
15241;DHT22;7723;52.170;9.978;2022-07-24T05:03:54;20.90;1.00
15241;DHT22;7723;52.170;9.978;2022-07-24T05:06:25;21.20;1.00
15241;DHT22;7723;52.170;9.978;2022-07-24T05:08:52;21.70;1.00
15241;DHT22;7723;52.170;9.978;2022-07-24T05:11:19;21.80;1.00
15241;DHT22;7723;52.170;9.978;2022-07-24T05:13:46;22.00;1.00
15241;DHT22;7723;52.170;9.978;2022-07-24T05:16:14;22.70;1.00
15241;DHT22;7723;52.170;9.978;2022-07-24T05:18:41;23.00;1.00
15241;DHT22;7723;52.170;9.978;2022-07-24T05:21:08;23.30;1.00
15241;DHT22;7723;52.170;9.978;2022-07-24T05:23:36;23.60;1.00
15241;DHT22;7723;52.170;9.978;2022-07-24T05:26:03;23.90;1.00
15241;DHT22;7723;52.170;9.978;2022-07-24T05:28:32;24.10;1.00
15241;DHT22;7723;52.170;9.978;2022-07-24T05:30:59;24.40;1.00
15241;DHT22;7723;52.170;9.978;2022-07-24T05:33:26;24.90;1.00
15241;DHT22;7723;52.170;9.978;2022-07-24T05:35:53;25.70;1.00
15241;DHT22;7723;52.170;9.978;2022-07-24T05:38:20;25.80;1.00
15241;DHT22;7723;52.170;9.978;2022-07-24T05:40:49;25.90;1.00
15241;DHT22;7723;52.170;9.978;2022-07-24T05:43:16;26.00;1.00
15241;DHT22;7723;52.170;9.978;2022-07-24T05:45:43;26.00;1.00
15241;DHT22;7723;52.170;9.978;2022-07-24T05:48:11;26.40;1.00
15241;DHT22;7723;52.170;9.978;2022-07-24T05:50:38;26.60;1.00
15241;DHT22;7723;52.170;9.978;2022-07-24T05:53:05;26.40;1.00
15241;DHT22;7723;52.170;9.978;2022-07-24T05:55:32;26.60;1.00
15241;DHT22;7723;52.170;9.978;2022-07-24T05:58:01;26.70;1.00
15241;DHT22;7723;52.170;9.978;2022-07-24T06:00:29;27.30;1.00
15241;DHT22;7723;52.170;9.978;2022-07-24T06:02:56;27.10;1.00
15241;DHT22;7723;52.170;9.978;2022-07-24T06:05:23;27.20;1.00
15241;DHT22;7723;52.170;9.978;2022-07-24T06:07:51;27.30;1.00
15241;DHT22;7723;52.170;9.978;2022-07-24T06:10:18;27.20;1.00
15241;DHT22;7723;52.170;9.978;2022-07-24T06:12:45;26.90;1.00
15241;DHT22;7723;52.170;9.978;2022-07-24T06:15:14;27.60;1.00
15241;DHT22;7723;52.170;9.978;2022-07-24T06:17:41;27.40;1.00
15241;DHT22;7723;52.170;9.978;2022-07-24T06:20:09;27.70;1.00
15241;DHT22;7723;52.170;9.978;2022-07-24T06:22:38;28.30;1.00
15241;DHT22;7723;52.170;9.978;2022-07-24T06:25:06;27.90;1.00
15241;DHT22;7723;52.170;9.978;2022-07-24T06:27:36;28.50;1.00
15241;DHT22;7723;52.170;9.978;2022-07-24T06:30:07;28.20;1.00
15241;DHT22;7723;52.170;9.978;2022-07-24T06:32:40;27.90;1.00
15241;DHT22;7723;52.170;9.978;2022-07-24T06:35:07;28.10;1.00
15241;DHT22;7723;52.170;9.978;2022-07-24T06:37:34;28.40;1.00
15241;DHT22;7723;52.170;9.978;2022-07-24T06:40:02;28.60;1.00
15241;DHT22;7723;52.170;9.978;2022-07-24T06:42:30;28.30;1.00
15241;DHT22;7723;52.170;9.978;2022-07-24T06:44:57;28.40;1.00
15241;DHT22;7723;52.170;9.978;2022-07-24T06:47:24;28.80;1.00
15241;DHT22;7723;52.170;9.978;2022-07-24T06:49:53;28.20;1.00
15241;DHT22;7723;52.170;9.978;2022-07-24T06:52:20;28.90;1.00
15241;DHT22;7723;52.170;9.978;2022-07-24T06:54:48;28.30;1.00
15241;DHT22;7723;52.170;9.978;2022-07-24T06:57:15;27.70;1.00
15241;DHT22;7723;52.170;9.978;2022-07-24T06:59:43;28.10;1.00
15241;DHT22;7723;52.170;9.978;2022-07-24T07:02:11;28.50;1.00
15241;DHT22;7723;52.170;9.978;2022-07-24T07:04:38;28.50;1.00
15241;DHT22;7723;52.170;9.978;2022-07-24T07:07:06;28.30;1.00
15241;DHT22;7723;52.170;9.978;2022-07-24T07:09:33;27.70;1.00
15241;DHT22;7723;52.170;9.978;2022-07-24T07:12:02;27.70;1.00
15241;DHT22;7723;52.170;9.978;2022-07-24T07:14:29;27.50;1.00
15241;DHT22;7723;52.170;9.978;2022-07-24T07:16:56;27.20;1.00
15241;DHT22;7723;52.170;9.978;2022-07-24T07:19:23;28.20;1.00
15241;DHT22;7723;52.170;9.978;2022-07-24T07:21:50;28.40;1.00
15241;DHT22;7723;52.170;9.978;2022-07-24T07:24:19;29.40;1.00
15241;DHT22;7723;52.170;9.978;2022-07-24T07:26:46;29.00;1.00
15241;DHT22;7723;52.170;9.978;2022-07-24T07:29:13;29.00;1.00
15241;DHT22;7723;52.170;9.978;2022-07-24T07:31:40;29.20;1.00
15241;DHT22;7723;52.170;9.978;2022-07-24T07:34:07;28.80;1.00
15241;DHT22;7723;52.170;9.978;2022-07-24T07:36:34;30.00;1.00
15241;DHT22;7723;52.170;9.978;2022-07-24T07:39:02;30.40;1.00
15241;DHT22;7723;52.170;9.978;2022-07-24T07:41:30;30.20;1.00
15241;DHT22;7723;52.170;9.978;2022-07-24T07:43:57;29.80;1.00
15241;DHT22;7723;52.170;9.978;2022-07-24T07:46:25;29.10;1.00
15241;DHT22;7723;52.170;9.978;2022-07-24T07:48:52;29.40;1.00
15241;DHT22;7723;52.170;9.978;2022-07-24T07:51:19;30.00;1.00
15241;DHT22;7723;52.170;9.978;2022-07-24T07:53:46;29.10;1.00
15241;DHT22;7723;52.170;9.978;2022-07-24T07:56:14;30.20;1.00
15241;DHT22;7723;52.170;9.978;2022-07-24T07:58:43;30.40;1.00
15241;DHT22;7723;52.170;9.978;2022-07-24T08:01:10;30.00;1.00
15241;DHT22;7723;52.170;9.978;2022-07-24T08:03:37;30.30;1.00
15241;DHT22;7723;52.170;9.978;2022-07-24T08:06:04;30.90;1.00
15241;DHT22;7723;52.170;9.978;2022-07-24T08:08:32;31.30;1.00
15241;DHT22;7723;52.170;9.978;2022-07-24T08:10:59;31.30;1.00
15241;DHT22;7723;52.170;9.978;2022-07-24T08:13:26;31.60;1.00
15241;DHT22;7723;52.170;9.978;2022-07-24T08:15:54;31.50;1.00
15241;DHT22;7723;52.170;9.978;2022-07-24T08:18:22;31.10;1.00
15241;DHT22;7723;52.170;9.978;2022-07-24T08:20:49;31.00;1.00
15241;DHT22;7723;52.170;9.978;2022-07-24T08:23:16;30.80;1.00
15241;DHT22;7723;52.170;9.978;2022-07-24T08:25:43;30.70;1.00
15241;DHT22;7723;52.170;9.978;2022-07-24T08:28:10;30.30;1.00
15241;DHT22;7723;52.170;9.978;2022-07-24T08:30:37;29.90;1.00
15241;DHT22;7723;52.170;9.978;2022-07-24T08:33:06;29.40;1.00
15241;DHT22;7723;52.170;9.978;2022-07-24T08:35:33;29.30;1.00
15241;DHT22;7723;52.170;9.978;2022-07-24T08:38:01;28.90;1.00
15241;DHT22;7723;52.170;9.978;2022-07-24T08:40:33;29.00;1.00
15241;DHT22;7723;52.170;9.978;2022-07-24T08:43:01;30.20;1.00
15241;DHT22;7723;52.170;9.978;2022-07-24T08:45:29;29.10;1.00
15241;DHT22;7723;52.170;9.978;2022-07-24T08:48:02;29.90;1.00
15241;DHT22;7723;52.170;9.978;2022-07-24T08:50:31;30.00;1.00
15241;DHT22;7723;52.170;9.978;2022-07-24T08:52:59;30.50;1.00
15241;DHT22;7723;52.170;9.978;2022-07-24T08:55:27;31.30;1.00
15241;DHT22;7723;52.170;9.978;2022-07-24T08:57:55;31.30;1.00
15241;DHT22;7723;52.170;9.978;2022-07-24T09:00:24;31.40;1.00
15241;DHT22;7723;52.170;9.978;2022-07-24T09:02:52;31.40;1.00
15241;DHT22;7723;52.170;9.978;2022-07-24T09:05:19;32.00;1.00
15241;DHT22;7723;52.170;9.978;2022-07-24T09:07:48;31.40;1.00
15241;DHT22;7723;52.170;9.978;2022-07-24T09:10:16;30.40;1.00
15241;DHT22;7723;52.170;9.978;2022-07-24T09:12:45;30.80;1.00
15241;DHT22;7723;52.170;9.978;2022-07-24T09:15:14;30.60;1.00
15241;DHT22;7723;52.170;9.978;2022-07-24T09:17:49;31.30;1.00
15241;DHT22;7723;52.170;9.978;2022-07-24T09:20:17;31.90;1.00
15241;DHT22;7723;52.170;9.978;2022-07-24T09:22:44;31.40;1.00
15241;DHT22;7723;52.170;9.978;2022-07-24T09:25:15;31.20;1.00
15241;DHT22;7723;52.170;9.978;2022-07-24T09:27:47;31.90;1.00
15241;DHT22;7723;52.170;9.978;2022-07-24T09:30:29;31.90;1.00
15241;DHT22;7723;52.170;9.978;2022-07-24T09:32:59;31.90;1.00
15241;DHT22;7723;52.170;9.978;2022-07-24T09:35:32;31.40;1.00
15241;DHT22;7723;52.170;9.978;2022-07-24T09:38:01;31.10;1.00
15241;DHT22;7723;52.170;9.978;2022-07-24T09:40:32;31.00;1.00
15241;DHT22;7723;52.170;9.978;2022-07-24T09:43:18;31.50;1.00
15241;DHT22;7723;52.170;9.978;2022-07-24T09:45:59;31.60;1.00
15241;DHT22;7723;52.170;9.978;2022-07-24T09:48:29;31.90;1.00
15241;DHT22;7723;52.170;9.978;2022-07-24T09:51:00;32.00;1.00
15241;DHT22;7723;52.170;9.978;2022-07-24T09:53:29;31.80;1.00
15241;DHT22;7723;52.170;9.978;2022-07-24T09:56:04;32.40;1.00
15241;DHT22;7723;52.170;9.978;2022-07-24T09:58:37;32.50;1.00
15241;DHT22;7723;52.170;9.978;2022-07-24T10:01:06;32.60;1.00
15241;DHT22;7723;52.170;9.978;2022-07-24T10:03:36;32.40;1.00
15241;DHT22;7723;52.170;9.978;2022-07-24T10:06:07;32.30;1.00
15241;DHT22;7723;52.170;9.978;2022-07-24T10:08:37;32.40;1.00
15241;DHT22;7723;52.170;9.978;2022-07-24T10:11:07;31.60;1.00
15241;DHT22;7723;52.170;9.978;2022-07-24T10:13:35;31.40;1.00
15241;DHT22;7723;52.170;9.978;2022-07-24T10:16:28;31.40;1.00
15241;DHT22;7723;52.170;9.978;2022-07-24T10:18:57;31.00;1.00
15241;DHT22;7723;52.170;9.978;2022-07-24T10:21:26;31.00;1.00
15241;DHT22;7723;52.170;9.978;2022-07-24T10:24:11;31.50;1.00
15241;DHT22;7723;52.170;9.978;2022-07-24T10:26:41;31.90;1.00
15241;DHT22;7723;52.170;9.978;2022-07-24T10:29:10;32.00;1.00
15241;DHT22;7723;52.170;9.978;2022-07-24T10:31:38;31.60;1.00
15241;DHT22;7723;52.170;9.978;2022-07-24T10:34:13;31.40;1.00
15241;DHT22;7723;52.170;9.978;2022-07-24T10:36:49;31.40;1.00
15241;DHT22;7723;52.170;9.978;2022-07-24T10:39:22;31.20;1.00
15241;DHT22;7723;52.170;9.978;2022-07-24T10:42:04;30.50;1.00
15241;DHT22;7723;52.170;9.978;2022-07-24T10:44:32;30.70;1.00
15241;DHT22;7723;52.170;9.978;2022-07-24T10:47:02;30.90;1.00
15241;DHT22;7723;52.170;9.978;2022-07-24T10:49:44;30.30;1.00
15241;DHT22;7723;52.170;9.978;2022-07-24T10:52:22;30.10;1.00
15241;DHT22;7723;52.170;9.978;2022-07-24T10:55:23;30.00;1.00
15241;DHT22;7723;52.170;9.978;2022-07-24T10:57:57;30.10;1.00
15241;DHT22;7723;52.170;9.978;2022-07-24T11:00:26;30.00;1.00
15241;DHT22;7723;52.170;9.978;2022-07-24T11:02:59;29.90;1.00
15241;DHT22;7723;52.170;9.978;2022-07-24T11:05:28;29.90;1.00
15241;DHT22;7723;52.170;9.978;2022-07-24T11:11:10;29.80;1.00
15241;DHT22;7723;52.170;9.978;2022-07-24T11:13:50;29.90;1.00
15241;DHT22;7723;52.170;9.978;2022-07-24T11:16:25;29.80;1.00
15241;DHT22;7723;52.170;9.978;2022-07-24T11:19:27;29.60;1.00
15241;DHT22;7723;52.170;9.978;2022-07-24T11:22:09;29.60;1.00
15241;DHT22;7723;52.170;9.978;2022-07-24T11:24:41;29.70;1.00
15241;DHT22;7723;52.170;9.978;2022-07-24T11:27:18;29.60;1.00
15241;DHT22;7723;52.170;9.978;2022-07-24T11:29:55;29.80;1.00
15241;DHT22;7723;52.170;9.978;2022-07-24T11:32:27;29.90;1.00
15241;DHT22;7723;52.170;9.978;2022-07-24T11:34:54;30.00;1.00
15241;DHT22;7723;52.170;9.978;2022-07-24T11:37:22;29.80;1.00
15241;DHT22;7723;52.170;9.978;2022-07-24T11:39:50;29.50;1.00
15241;DHT22;7723;52.170;9.978;2022-07-24T11:42:17;29.70;1.00
15241;DHT22;7723;52.170;9.978;2022-07-24T11:44:46;29.80;1.00
15241;DHT22;7723;52.170;9.978;2022-07-24T11:47:16;29.60;1.00
15241;DHT22;7723;52.170;9.978;2022-07-24T11:49:45;29.40;1.00
15241;DHT22;7723;52.170;9.978;2022-07-24T11:52:14;29.20;1.00
15241;DHT22;7723;52.170;9.978;2022-07-24T11:54:42;29.00;1.00
15241;DHT22;7723;52.170;9.978;2022-07-24T11:57:20;29.10;1.00
15241;DHT22;7723;52.170;9.978;2022-07-24T11:59:48;29.40;1.00
15241;DHT22;7723;52.170;9.978;2022-07-24T12:02:18;29.30;1.00
15241;DHT22;7723;52.170;9.978;2022-07-24T12:04:46;29.40;1.00
15241;DHT22;7723;52.170;9.978;2022-07-24T12:07:16;29.50;1.00
15241;DHT22;7723;52.170;9.978;2022-07-24T12:09:44;29.70;1.00
15241;DHT22;7723;52.170;9.978;2022-07-24T12:12:20;29.70;1.00
15241;DHT22;7723;52.170;9.978;2022-07-24T12:14:47;29.70;1.00
15241;DHT22;7723;52.170;9.978;2022-07-24T12:17:14;29.40;1.00
15241;DHT22;7723;52.170;9.978;2022-07-24T12:19:52;29.20;1.00
15241;DHT22;7723;52.170;9.978;2022-07-24T12:22:20;29.10;1.00
15241;DHT22;7723;52.170;9.978;2022-07-24T12:24:48;29.10;1.00
15241;DHT22;7723;52.170;9.978;2022-07-24T12:27:34;29.50;1.00
15241;DHT22;7723;52.170;9.978;2022-07-24T12:30:01;29.40;1.00
15241;DHT22;7723;52.170;9.978;2022-07-24T12:32:28;29.10;1.00
15241;DHT22;7723;52.170;9.978;2022-07-24T12:34:57;29.00;1.00
15241;DHT22;7723;52.170;9.978;2022-07-24T12:37:24;29.10;1.00
15241;DHT22;7723;52.170;9.978;2022-07-24T12:39:53;29.20;1.00
15241;DHT22;7723;52.170;9.978;2022-07-24T12:42:29;29.20;1.00
15241;DHT22;7723;52.170;9.978;2022-07-24T12:45:06;29.20;1.00
15241;DHT22;7723;52.170;9.978;2022-07-24T12:50:19;29.30;1.00
15241;DHT22;7723;52.170;9.978;2022-07-24T12:52:50;29.50;1.00
15241;DHT22;7723;52.170;9.978;2022-07-24T12:55:21;29.50;1.00
15241;DHT22;7723;52.170;9.978;2022-07-24T12:57:57;29.60;1.00
15241;DHT22;7723;52.170;9.978;2022-07-24T13:00:25;29.50;1.00
15241;DHT22;7723;52.170;9.978;2022-07-24T13:02:52;29.60;1.00
15241;DHT22;7723;52.170;9.978;2022-07-24T13:05:39;29.50;1.00
15241;DHT22;7723;52.170;9.978;2022-07-24T13:08:06;29.70;1.00
15241;DHT22;7723;52.170;9.978;2022-07-24T13:10:34;29.80;1.00
15241;DHT22;7723;52.170;9.978;2022-07-24T13:13:02;29.60;1.00
15241;DHT22;7723;52.170;9.978;2022-07-24T13:15:29;29.80;1.00
15241;DHT22;7723;52.170;9.978;2022-07-24T13:17:56;29.60;1.00
15241;DHT22;7723;52.170;9.978;2022-07-24T13:20:23;29.70;1.00
15241;DHT22;7723;52.170;9.978;2022-07-24T13:22:52;29.70;1.00
15241;DHT22;7723;52.170;9.978;2022-07-24T13:25:19;29.60;1.00
15241;DHT22;7723;52.170;9.978;2022-07-24T13:27:46;29.30;1.00
15241;DHT22;7723;52.170;9.978;2022-07-24T13:30:13;29.20;1.00
15241;DHT22;7723;52.170;9.978;2022-07-24T13:32:41;29.20;1.00
15241;DHT22;7723;52.170;9.978;2022-07-24T13:35:09;29.10;1.00
15241;DHT22;7723;52.170;9.978;2022-07-24T13:37:36;29.10;1.00
15241;DHT22;7723;52.170;9.978;2022-07-24T13:40:06;29.20;1.00
15241;DHT22;7723;52.170;9.978;2022-07-24T13:42:37;29.30;1.00
15241;DHT22;7723;52.170;9.978;2022-07-24T13:45:06;29.40;1.00
15241;DHT22;7723;52.170;9.978;2022-07-24T13:47:33;29.50;1.00
15241;DHT22;7723;52.170;9.978;2022-07-24T13:50:00;29.40;1.00
15241;DHT22;7723;52.170;9.978;2022-07-24T13:52:27;29.40;1.00
15241;DHT22;7723;52.170;9.978;2022-07-24T13:54:55;29.60;1.00
15241;DHT22;7723;52.170;9.978;2022-07-24T13:57:23;29.50;1.00
15241;DHT22;7723;52.170;9.978;2022-07-24T13:59:50;29.60;1.00
15241;DHT22;7723;52.170;9.978;2022-07-24T14:02:17;29.60;1.00
15241;DHT22;7723;52.170;9.978;2022-07-24T14:04:45;29.60;1.00
15241;DHT22;7723;52.170;9.978;2022-07-24T14:07:12;29.80;1.00
15241;DHT22;7723;52.170;9.978;2022-07-24T14:09:39;29.90;1.00
15241;DHT22;7723;52.170;9.978;2022-07-24T14:12:07;30.00;1.00
15241;DHT22;7723;52.170;9.978;2022-07-24T14:14:36;29.90;1.00
15241;DHT22;7723;52.170;9.978;2022-07-24T14:17:03;29.90;1.00
15241;DHT22;7723;52.170;9.978;2022-07-24T14:19:30;29.50;1.00
15241;DHT22;7723;52.170;9.978;2022-07-24T14:21:57;29.60;1.00
15241;DHT22;7723;52.170;9.978;2022-07-24T14:24:24;29.70;1.00
15241;DHT22;7723;52.170;9.978;2022-07-24T14:26:51;29.60;1.00
15241;DHT22;7723;52.170;9.978;2022-07-24T14:29:19;29.60;1.00
15241;DHT22;7723;52.170;9.978;2022-07-24T14:31:47;29.70;1.00
15241;DHT22;7723;52.170;9.978;2022-07-24T14:34:14;29.90;1.00
15241;DHT22;7723;52.170;9.978;2022-07-24T14:36:42;29.70;1.00
15241;DHT22;7723;52.170;9.978;2022-07-24T14:39:09;29.80;1.00
15241;DHT22;7723;52.170;9.978;2022-07-24T14:41:37;29.70;1.00
15241;DHT22;7723;52.170;9.978;2022-07-24T14:44:04;29.80;1.00
15241;DHT22;7723;52.170;9.978;2022-07-24T14:46:32;29.80;1.00
15241;DHT22;7723;52.170;9.978;2022-07-24T14:49:00;29.80;1.00
15241;DHT22;7723;52.170;9.978;2022-07-24T14:51:27;29.80;1.00
15241;DHT22;7723;52.170;9.978;2022-07-24T14:53:54;29.70;1.00
15241;DHT22;7723;52.170;9.978;2022-07-24T14:56:21;29.60;1.00
15241;DHT22;7723;52.170;9.978;2022-07-24T14:58:49;29.70;1.00
15241;DHT22;7723;52.170;9.978;2022-07-24T15:01:16;29.80;1.00
15241;DHT22;7723;52.170;9.978;2022-07-24T15:03:43;29.80;1.00
15241;DHT22;7723;52.170;9.978;2022-07-24T15:06:12;29.80;1.00
15241;DHT22;7723;52.170;9.978;2022-07-24T15:08:39;29.70;1.00
15241;DHT22;7723;52.170;9.978;2022-07-24T15:11:06;29.70;1.00
15241;DHT22;7723;52.170;9.978;2022-07-24T15:13:33;29.70;1.00
15241;DHT22;7723;52.170;9.978;2022-07-24T15:16:03;29.80;1.00
15241;DHT22;7723;52.170;9.978;2022-07-24T15:18:30;29.80;1.00
15241;DHT22;7723;52.170;9.978;2022-07-24T15:20:57;29.90;1.00
15241;DHT22;7723;52.170;9.978;2022-07-24T15:23:26;29.80;1.00
15241;DHT22;7723;52.170;9.978;2022-07-24T15:25:53;29.70;1.00
15241;DHT22;7723;52.170;9.978;2022-07-24T15:28:21;29.50;1.00
15241;DHT22;7723;52.170;9.978;2022-07-24T15:30:48;29.60;1.00
15241;DHT22;7723;52.170;9.978;2022-07-24T15:33:15;29.50;1.00
15241;DHT22;7723;52.170;9.978;2022-07-24T15:35:42;29.70;1.00
15241;DHT22;7723;52.170;9.978;2022-07-24T15:38:09;29.80;1.00
15241;DHT22;7723;52.170;9.978;2022-07-24T15:40:40;29.60;1.00
15241;DHT22;7723;52.170;9.978;2022-07-24T15:43:07;29.60;1.00
15241;DHT22;7723;52.170;9.978;2022-07-24T15:45:35;29.80;1.00
15241;DHT22;7723;52.170;9.978;2022-07-24T15:48:02;29.80;1.00
15241;DHT22;7723;52.170;9.978;2022-07-24T15:50:29;29.80;1.00
15241;DHT22;7723;52.170;9.978;2022-07-24T15:52:57;29.80;1.00
15241;DHT22;7723;52.170;9.978;2022-07-24T15:55:24;29.80;1.00
15241;DHT22;7723;52.170;9.978;2022-07-24T15:57:52;29.90;1.00
15241;DHT22;7723;52.170;9.978;2022-07-24T16:00:19;29.80;1.00
15241;DHT22;7723;52.170;9.978;2022-07-24T16:02:47;29.70;1.00
15241;DHT22;7723;52.170;9.978;2022-07-24T16:05:14;29.90;1.00
15241;DHT22;7723;52.170;9.978;2022-07-24T16:07:44;29.70;1.00
15241;DHT22;7723;52.170;9.978;2022-07-24T16:10:13;29.70;1.00
15241;DHT22;7723;52.170;9.978;2022-07-24T16:12:40;29.70;1.00